Time;durP1;ratioP1;P1;durP2;ratioP2;P2;SDS_P1;SDS_P2;PMS_P1;PMS_P2;Temp;Humidity;BMP_temperature;BMP_pressure;BME280_temperature;BME280_humidity;BME280_pressure;Samples;Min_cycle;Max_cycle;Signal;HPM_P1;HPM_P2
2022/01/08 00:01:40;;;;;;;21.98;12.90;;;;;;;;;;4970495;28;20125;-72
2022/01/08 00:04:06;;;;;;;22.23;13.60;;;;;;;;;;4970501;28;20461;-72
2022/01/08 00:06:32;;;;;;;25.45;13.20;;;;;;;;;;4970292;28;20038;-72
2022/01/08 00:08:58;;;;;;;21.65;13.60;;;;;;;;;;4970544;28;20043;-72
2022/01/08 00:11:27;;;;;;;25.48;13.88;;;;;;;;;;4969433;28;20503;-72
2022/01/08 00:13:54;;;;;;;21.17;12.75;;;;;;;;;;4969680;28;20046;-73
2022/01/08 00:16:20;;;;;;;26.63;14.13;;;;;;;;;;4969511;28;20051;-71
2022/01/08 00:18:46;;;;;;;22.70;14.27;;;;;;;;;;4970548;28;20377;-71
2022/01/08 00:21:13;;;;;;;20.35;12.93;;;;;;;;;;4969899;28;20089;-71
2022/01/08 00:23:39;;;;;;;19.63;12.10;;;;;;;;;;4971394;28;20031;-71
2022/01/08 00:26:06;;;;;;;18.92;11.85;;;;;;;;;;4972695;28;20051;-71
2022/01/08 00:28:32;;;;;;;20.42;11.88;;;;;;;;;;4971450;28;20039;-71
2022/01/08 00:30:58;;;;;;;26.63;12.77;;;;;;;;;;4969695;28;20043;-71
2022/01/08 00:33:24;;;;;;;18.83;12.05;;;;;;;;;;4968584;28;20074;-71
2022/01/08 00:35:50;;;;;;;20.00;11.05;;;;;;;;;;4967353;28;20057;-72
2022/01/08 00:38:16;;;;;;;18.65;10.18;;;;;;;;;;4970331;28;20612;-72
2022/01/08 00:40:42;;;;;;;15.63;9.88;;;;;;;;;;4969998;28;20123;-71
2022/01/08 00:43:08;;;;;;;14.70;8.82;;;;;;;;;;4969604;28;20050;-71
2022/01/08 00:45:34;;;;;;;18.98;9.52;;;;;;;;;;4969374;28;20274;-71
2022/01/08 00:47:59;;;;;;;14.05;9.25;;;;;;;;;;4968477;28;20105;-70
2022/01/08 00:50:26;;;;;;;17.02;9.85;;;;;;;;;;4967357;28;20089;-71
2022/01/08 00:52:51;;;;;;;14.88;8.85;;;;;;;;;;4968624;28;20715;-73
2022/01/08 00:55:17;;;;;;;17.13;9.48;;;;;;;;;;4972598;28;20047;-71
2022/01/08 00:57:43;;;;;;;16.67;9.32;;;;;;;;;;4972878;28;20369;-72
2022/01/08 01:00:13;;;;;;;17.60;8.68;;;;;;;;;;4973237;28;20039;-72
2022/01/08 01:02:40;;;;;;;18.77;8.95;;;;;;;;;;4970691;28;20067;-72
2022/01/08 01:05:06;;;;;;;12.63;8.82;;;;;;;;;;4970180;28;20038;-72
2022/01/08 01:07:32;;;;;;;14.88;8.30;;;;;;;;;;4968844;28;20035;-72
2022/01/08 01:09:58;;;;;;;17.15;9.10;;;;;;;;;;4969294;28;20388;-72
2022/01/08 01:12:24;;;;;;;17.05;8.60;;;;;;;;;;4969391;28;20070;-72
2022/01/08 01:14:50;;;;;;;14.77;8.52;;;;;;;;;;4967937;28;20078;-72
2022/01/08 01:17:16;;;;;;;13.50;8.45;;;;;;;;;;4969522;28;20051;-73
2022/01/08 01:19:43;;;;;;;16.98;8.80;;;;;;;;;;4969403;28;20071;-72
2022/01/08 01:22:09;;;;;;;16.17;8.68;;;;;;;;;;4969199;28;20053;-72
2022/01/08 01:24:37;;;;;;;15.55;8.65;;;;;;;;;;4969517;28;20049;-71
2022/01/08 01:27:29;;;;;;;15.65;8.82;;;;;;;;;;4969408;28;20043;-72
2022/01/08 01:30:01;;;;;;;17.10;8.90;;;;;;;;;;4969504;28;20034;-71
2022/01/08 01:48:54;;;;;;;15.35;7.95;;;;;;;;;;4978226;28;20031;-71
2022/01/08 01:51:22;;;;;;;11.82;5.72;;;;;;;;;;4972919;28;20047;-72
2022/01/08 01:53:48;;;;;;;17.70;7.75;;;;;;;;;;4972948;28;20035;-72
2022/01/08 01:56:19;;;;;;;11.50;6.82;;;;;;;;;;4972697;28;20046;-72
2022/01/08 01:58:46;;;;;;;14.68;8.00;;;;;;;;;;4972697;28;20054;-73
2022/01/08 02:01:12;;;;;;;16.05;8.18;;;;;;;;;;4972328;28;20045;-72
2022/01/08 02:03:39;;;;;;;13.63;8.48;;;;;;;;;;4973007;28;20034;-72
2022/01/08 02:06:06;;;;;;;14.13;7.45;;;;;;;;;;4972850;28;20396;-71
2022/01/08 02:08:33;;;;;;;11.70;6.85;;;;;;;;;;4970317;28;20047;-72
2022/01/08 02:10:59;;;;;;;13.48;7.57;;;;;;;;;;4971316;28;20045;-72
2022/01/08 02:13:28;;;;;;;14.45;8.63;;;;;;;;;;4972198;28;20031;-72
2022/01/08 02:15:55;;;;;;;17.33;8.68;;;;;;;;;;4972893;28;20038;-73
2022/01/08 02:18:25;;;;;;;13.25;7.03;;;;;;;;;;4972170;28;20042;-72
2022/01/08 02:20:52;;;;;;;13.90;8.43;;;;;;;;;;4972072;28;20061;-71
2022/01/08 02:23:18;;;;;;;15.88;7.68;;;;;;;;;;4969959;28;20035;-72
2022/01/08 02:25:44;;;;;;;14.25;7.97;;;;;;;;;;4971529;28;20133;-70
2022/01/08 02:28:10;;;;;;;18.73;8.07;;;;;;;;;;4973651;28;20039;-72
2022/01/08 02:30:36;;;;;;;17.42;8.52;;;;;;;;;;4972336;28;20058;-72
2022/01/08 02:33:03;;;;;;;18.42;9.43;;;;;;;;;;4971632;28;20050;-73
2022/01/08 02:35:29;;;;;;;20.80;9.80;;;;;;;;;;4971382;28;20038;-71
2022/01/08 02:37:55;;;;;;;17.10;8.77;;;;;;;;;;4971351;28;20624;-73
2022/01/08 02:40:22;;;;;;;18.65;9.15;;;;;;;;;;4971459;28;20066;-73
2022/01/08 02:42:52;;;;;;;16.98;8.68;;;;;;;;;;4970399;28;20043;-73
2022/01/08 02:45:20;;;;;;;16.60;8.57;;;;;;;;;;4972209;28;20039;-73
2022/01/08 02:47:46;;;;;;;17.80;9.77;;;;;;;;;;4972946;28;20049;-72
2022/01/08 02:50:13;;;;;;;17.60;8.93;;;;;;;;;;4975181;28;20057;-72
2022/01/08 02:52:44;;;;;;;18.23;9.63;;;;;;;;;;4977051;28;20030;-72
2022/01/08 02:55:13;;;;;;;18.80;10.23;;;;;;;;;;4978375;28;20042;-73
2022/01/08 02:57:39;;;;;;;19.40;9.95;;;;;;;;;;4978191;28;20034;-73
2022/01/08 03:00:07;;;;;;;19.35;10.85;;;;;;;;;;4974070;28;20118;-73
2022/01/08 03:02:33;;;;;;;15.88;9.13;;;;;;;;;;4972949;28;20027;-73
2022/01/08 03:04:59;;;;;;;15.38;9.10;;;;;;;;;;4972004;28;20396;-73
2022/01/08 03:07:25;;;;;;;17.35;9.23;;;;;;;;;;4971706;28;20071;-73
2022/01/08 03:09:57;;;;;;;16.08;8.65;;;;;;;;;;4971316;28;20471;-73
2022/01/08 03:12:27;;;;;;;17.88;9.70;;;;;;;;;;4971042;28;20054;-73
2022/01/08 03:14:55;;;;;;;20.85;9.77;;;;;;;;;;4970925;28;20047;-72
2022/01/08 03:17:21;;;;;;;17.25;9.98;;;;;;;;;;4971164;28;20057;-73
2022/01/08 03:19:47;;;;;;;16.55;9.05;;;;;;;;;;4970881;28;20070;-72
2022/01/08 03:22:13;;;;;;;17.30;9.30;;;;;;;;;;4971082;28;20062;-72
2022/01/08 03:24:39;;;;;;;13.65;7.70;;;;;;;;;;4971380;28;20504;-72
2022/01/08 03:27:05;;;;;;;13.82;7.78;;;;;;;;;;4970963;28;20050;-72
2022/01/08 03:29:31;;;;;;;10.88;6.43;;;;;;;;;;4971246;28;20051;-74
2022/01/08 03:31:57;;;;;;;12.05;7.30;;;;;;;;;;4970860;28;20058;-73
2022/01/08 03:34:23;;;;;;;12.02;6.55;;;;;;;;;;4970747;28;20042;-73
2022/01/08 03:36:49;;;;;;;11.55;6.25;;;;;;;;;;4971280;28;20140;-73
2022/01/08 03:39:15;;;;;;;12.07;5.80;;;;;;;;;;4969349;28;20150;-73
2022/01/08 03:41:42;;;;;;;9.60;5.25;;;;;;;;;;4971410;28;20038;-72
2022/01/08 03:44:09;;;;;;;11.07;5.75;;;;;;;;;;4970959;28;20465;-73
2022/01/08 03:46:36;;;;;;;10.00;5.53;;;;;;;;;;4970907;28;20050;-73
2022/01/08 03:51:48;;;;;;;9.35;4.57;;;;;;;;;;4970484;28;20046;-74
2022/01/08 03:54:15;;;;;;;6.93;3.30;;;;;;;;;;4969950;28;20046;-73
2022/01/08 03:56:41;;;;;;;5.47;3.13;;;;;;;;;;4970714;28;20057;-72
2022/01/08 03:59:07;;;;;;;5.50;2.90;;;;;;;;;;4970225;28;20074;-72
2022/01/08 04:01:32;;;;;;;5.95;3.08;;;;;;;;;;4971878;28;20495;-72
2022/01/08 04:03:58;;;;;;;7.10;2.65;;;;;;;;;;4972212;28;20042;-72
2022/01/08 04:06:24;;;;;;;3.92;2.30;;;;;;;;;;4973307;28;20039;-72
2022/01/08 04:08:56;;;;;;;3.78;2.10;;;;;;;;;;4973712;28;20039;-72
2022/01/08 04:11:24;;;;;;;4.00;1.98;;;;;;;;;;4973268;28;20050;-72
2022/01/08 04:13:50;;;;;;;3.22;1.80;;;;;;;;;;4973275;28;20029;-72
2022/01/08 04:16:20;;;;;;;3.22;1.95;;;;;;;;;;4970278;28;20054;-72
2022/01/08 04:18:46;;;;;;;3.15;1.65;;;;;;;;;;4970420;28;20038;-72
2022/01/08 04:21:52;;;;;;;3.40;1.70;;;;;;;;;;4970450;28;20458;-72
2022/01/08 04:24:02;;;;;;;2.10;1.33;;;;;;;;;;4970185;28;20115;-72
2022/01/08 04:26:28;;;;;;;2.28;1.45;;;;;;;;;;4968041;28;20046;-72
2022/01/08 04:28:55;;;;;;;2.47;1.60;;;;;;;;;;4969664;28;20031;-72
2022/01/08 04:31:22;;;;;;;2.47;1.45;;;;;;;;;;4969669;28;20050;-72
2022/01/08 04:33:48;;;;;;;2.42;1.45;;;;;;;;;;4968059;28;20050;-72
2022/01/08 04:36:14;;;;;;;1.85;1.00;;;;;;;;;;4955166;23;20056;-72
2022/01/08 04:38:40;;;;;;;1.80;1.30;;;;;;;;;;4911738;29;20058;-72
2022/01/08 04:41:06;;;;;;;1.15;1.05;;;;;;;;;;4918974;29;20471;-73
2022/01/08 04:43:33;;;;;;;3.03;1.20;;;;;;;;;;4893914;29;20040;-73
2022/01/08 04:45:59;;;;;;;2.17;1.20;;;;;;;;;;4910375;29;20044;-73
2022/01/08 04:48:25;;;;;;;3.92;1.50;;;;;;;;;;4910800;29;20036;-72
2022/01/08 04:50:51;;;;;;;4.65;1.48;;;;;;;;;;4910050;29;20044;-72
2022/01/08 04:53:16;;;;;;;4.07;2.08;;;;;;;;;;4892499;29;20036;-71
2022/01/08 04:55:42;;;;;;;2.53;1.55;;;;;;;;;;4891249;29;20044;-73
2022/01/08 04:58:08;;;;;;;2.58;1.55;;;;;;;;;;4909131;29;20135;-72
2022/01/08 05:00:36;;;;;;;2.03;1.40;;;;;;;;;;4909305;29;20119;-74
2022/01/08 05:03:03;;;;;;;1.23;1.10;;;;;;;;;;4910030;29;20044;-73
2022/01/08 05:05:28;;;;;;;4.40;1.30;;;;;;;;;;4909341;29;20391;-73
2022/01/08 05:07:55;;;;;;;2.65;1.30;;;;;;;;;;4910315;29;20047;-72
2022/01/08 05:10:21;;;;;;;2.70;1.35;;;;;;;;;;4910618;29;20048;-72
2022/01/08 05:12:46;;;;;;;1.63;1.38;;;;;;;;;;4908913;29;20099;-72
2022/01/08 05:15:13;;;;;;;5.00;1.50;;;;;;;;;;4892084;29;20040;-72
2022/01/08 05:17:41;;;;;;;5.63;3.13;;;;;;;;;;4910810;29;20483;-72
2022/01/08 05:20:12;;;;;;;7.53;3.80;;;;;;;;;;4908618;29;20680;-72
2022/01/08 05:22:50;;;;;;;2.63;1.90;;;;;;;;;;4908476;29;20055;-72
2022/01/08 05:25:19;;;;;;;2.90;1.90;;;;;;;;;;4907976;29;20040;-69
2022/01/08 05:27:46;;;;;;;5.43;2.00;;;;;;;;;;4908311;29;20048;-71
2022/01/08 05:30:14;;;;;;;3.80;1.85;;;;;;;;;;4909022;29;20051;-74
2022/01/08 05:43:54;;;;;;;39.05;20.85;;;;;;;;;;5768680;23;21104;-78
2022/01/08 05:46:19;;;;;;;12.85;6.72;;;;;;;;;;5009964;23;20060;-74
2022/01/08 05:48:45;;;;;;;4.85;2.60;;;;;;;;;;4847652;29;20077;-74
2022/01/08 05:51:11;;;;;;;4.88;2.38;;;;;;;;;;4849633;29;20085;-74
2022/01/08 05:53:37;;;;;;;5.05;2.70;;;;;;;;;;4813813;29;20054;-74
2022/01/08 05:56:03;;;;;;;4.85;2.70;;;;;;;;;;4835413;29;20144;-75
2022/01/08 05:58:29;;;;;;;5.43;2.80;;;;;;;;;;4835627;29;20056;-75
2022/01/08 06:00:55;;;;;;;6.97;3.10;;;;;;;;;;4822298;29;20405;-74
2022/01/08 06:03:21;;;;;;;7.80;3.80;;;;;;;;;;4840617;29;20045;-74
2022/01/08 06:05:47;;;;;;;7.03;3.67;;;;;;;;;;4834014;29;20381;-74
2022/01/08 06:08:13;;;;;;;8.00;4.78;;;;;;;;;;4815859;29;20178;-75
2022/01/08 06:10:39;;;;;;;9.15;4.50;;;;;;;;;;4832815;29;20147;-74
2022/01/08 06:13:04;;;;;;;9.27;5.00;;;;;;;;;;4832734;29;20061;-75
2022/01/08 06:15:30;;;;;;;8.85;4.70;;;;;;;;;;4832804;29;20140;-75
2022/01/08 06:17:56;;;;;;;13.57;5.32;;;;;;;;;;4832280;29;20511;-74
2022/01/08 06:20:22;;;;;;;8.13;5.00;;;;;;;;;;4823750;29;20077;-75
2022/01/08 06:22:48;;;;;;;12.10;5.85;;;;;;;;;;4852094;29;20069;-75
2022/01/08 06:25:14;;;;;;;10.05;5.80;;;;;;;;;;4852214;29;20332;-75
2022/01/08 06:27:40;;;;;;;10.80;5.40;;;;;;;;;;4854596;29;20065;-75
2022/01/08 06:30:06;;;;;;;11.77;5.63;;;;;;;;;;4855162;29;20080;-75
2022/01/08 06:32:32;;;;;;;10.57;5.15;;;;;;;;;;4856173;29;20472;-75
2022/01/08 06:34:58;;;;;;;11.05;5.63;;;;;;;;;;4856554;29;20047;-75
2022/01/08 06:37:24;;;;;;;13.20;6.90;;;;;;;;;;4856790;29;20536;-75
2022/01/08 06:39:50;;;;;;;13.63;7.30;;;;;;;;;;4855678;29;20084;-75
2022/01/08 06:42:16;;;;;;;15.35;6.28;;;;;;;;;;4837916;29;20038;-75
2022/01/08 06:44:42;;;;;;;11.15;6.60;;;;;;;;;;4837316;29;20495;-75
2022/01/08 06:47:08;;;;;;;11.93;6.47;;;;;;;;;;4837883;29;20092;-75
2022/01/08 06:49:34;;;;;;;12.07;5.93;;;;;;;;;;4835056;29;20054;-75
2022/01/08 06:51:59;;;;;;;12.25;6.32;;;;;;;;;;4812611;29;20097;-75
2022/01/08 06:54:25;;;;;;;10.73;6.03;;;;;;;;;;4814569;29;20069;-75
2022/01/08 06:56:51;;;;;;;12.70;6.43;;;;;;;;;;4837287;29;20497;-75
2022/01/08 06:59:20;;;;;;;14.52;6.97;;;;;;;;;;4830947;29;20050;-75
2022/01/08 07:01:46;;;;;;;14.23;6.93;;;;;;;;;;4818800;29;20046;-75
2022/01/08 07:04:12;;;;;;;17.92;7.30;;;;;;;;;;4818972;29;20081;-74
2022/01/08 07:06:38;;;;;;;14.30;7.18;;;;;;;;;;4818948;29;20101;-75
2022/01/08 07:09:06;;;;;;;22.02;8.15;;;;;;;;;;4819391;29;20523;-74
2022/01/08 07:11:32;;;;;;;14.90;7.47;;;;;;;;;;4818899;29;20050;-74
2022/01/08 07:13:57;;;;;;;19.58;8.23;;;;;;;;;;4818373;29;20396;-74
2022/01/08 07:16:23;;;;;;;17.73;8.88;;;;;;;;;;4819456;29;20042;-74
2022/01/08 07:18:49;;;;;;;18.92;8.50;;;;;;;;;;4819367;29;20069;-75
2022/01/08 07:21:15;;;;;;;23.27;10.05;;;;;;;;;;4819352;29;20142;-74
2022/01/08 07:23:41;;;;;;;17.02;8.73;;;;;;;;;;4803517;29;20571;-74
2022/01/08 07:26:07;;;;;;;20.70;9.73;;;;;;;;;;4819048;29;20050;-75
2022/01/08 07:28:33;;;;;;;21.05;9.35;;;;;;;;;;4819156;29;20030;-75
2022/01/08 07:30:59;;;;;;;17.83;9.25;;;;;;;;;;4818775;29;20462;-74
2022/01/08 07:33:25;;;;;;;22.13;9.23;;;;;;;;;;4818337;29;20122;-74
2022/01/08 07:35:50;;;;;;;19.55;10.02;;;;;;;;;;4818534;29;20058;-75
2022/01/08 07:38:19;;;;;;;19.50;9.50;;;;;;;;;;4802416;29;20077;-75
2022/01/08 07:40:50;;;;;;;22.88;9.98;;;;;;;;;;4825951;29;20057;-75
2022/01/08 07:43:20;;;;;;;29.05;14.18;;;;;;;;;;4837009;29;20054;-76
2022/01/08 07:45:46;;;;;;;24.10;12.75;;;;;;;;;;4836598;29;20046;-76
2022/01/08 07:48:12;;;;;;;19.15;11.02;;;;;;;;;;4817232;29;20046;-76
2022/01/08 07:50:38;;;;;;;15.30;8.18;;;;;;;;;;4784393;29;20082;-74
2022/01/08 07:53:06;;;;;;;18.20;8.32;;;;;;;;;;4800637;29;20090;-73
2022/01/08 07:55:32;;;;;;;14.32;7.80;;;;;;;;;;4814182;29;20404;-74
2022/01/08 07:57:58;;;;;;;15.07;7.80;;;;;;;;;;4836997;29;20054;-74
2022/01/08 08:00:24;;;;;;;15.10;7.65;;;;;;;;;;4823281;29;20077;-76
2022/01/08 08:02:50;;;;;;;15.65;6.68;;;;;;;;;;4819405;29;20471;-75
2022/01/08 08:05:16;;;;;;;13.82;7.43;;;;;;;;;;4801840;29;20061;-75
2022/01/08 08:07:42;;;;;;;14.13;7.43;;;;;;;;;;4818675;29;20070;-75
2022/01/08 08:10:11;;;;;;;13.02;5.97;;;;;;;;;;4818585;29;20034;-75
2022/01/08 08:12:38;;;;;;;12.18;5.72;;;;;;;;;;4818403;29;20477;-75
2022/01/08 08:15:06;;;;;;;11.75;6.50;;;;;;;;;;4818390;29;20039;-74
2022/01/08 08:17:33;;;;;;;13.02;6.35;;;;;;;;;;4818102;29;20057;-74
2022/01/08 08:20:00;;;;;;;10.35;4.78;;;;;;;;;;4817421;29;20050;-74
2022/01/08 08:22:25;;;;;;;12.52;5.20;;;;;;;;;;4817561;29;20057;-74
2022/01/08 08:24:51;;;;;;;12.93;4.50;;;;;;;;;;4817239;29;20114;-73
2022/01/08 08:27:17;;;;;;;14.57;5.10;;;;;;;;;;4817552;29;20078;-76
2022/01/08 08:29:43;;;;;;;9.43;4.82;;;;;;;;;;4818033;29;20095;-74
2022/01/08 08:32:09;;;;;;;12.93;5.28;;;;;;;;;;4817835;29;20493;-76
2022/01/08 08:34:35;;;;;;;9.05;4.63;;;;;;;;;;4817638;29;20045;-76
2022/01/08 08:37:01;;;;;;;10.40;4.20;;;;;;;;;;4818115;29;20541;-74
2022/01/08 08:39:27;;;;;;;10.13;3.67;;;;;;;;;;4817941;29;20042;-76
2022/01/08 08:41:54;;;;;;;10.18;4.30;;;;;;;;;;4834034;29;20369;-76
2022/01/08 08:44:20;;;;;;;8.93;4.30;;;;;;;;;;4835522;29;20053;-76
2022/01/08 08:46:46;;;;;;;8.57;3.95;;;;;;;;;;4836263;29;20125;-76
2022/01/08 08:49:12;;;;;;;15.70;3.90;;;;;;;;;;4835564;29;20054;-74
2022/01/08 08:51:38;;;;;;;8.80;3.50;;;;;;;;;;4831830;29;20465;-74
2022/01/08 08:54:03;;;;;;;9.10;4.32;;;;;;;;;;4810951;29;20041;-74
2022/01/08 08:56:30;;;;;;;11.45;4.00;;;;;;;;;;4835814;29;20094;-75
2022/01/08 08:58:56;;;;;;;10.90;4.15;;;;;;;;;;4835939;29;20137;-75
2022/01/08 09:01:23;;;;;;;10.75;4.38;;;;;;;;;;4835837;29;20496;-75
2022/01/08 09:03:49;;;;;;;14.23;8.15;;;;;;;;;;4819200;29;20042;-74
2022/01/08 09:06:15;;;;;;;12.63;4.30;;;;;;;;;;4835444;29;20042;-75
2022/01/08 09:08:41;;;;;;;10.65;4.00;;;;;;;;;;4834944;29;20081;-75
2022/01/08 09:11:07;;;;;;;8.55;3.67;;;;;;;;;;4835627;29;20069;-75
2022/01/08 09:13:32;;;;;;;7.97;3.42;;;;;;;;;;4834857;29;20093;-74
2022/01/08 09:15:58;;;;;;;6.28;3.22;;;;;;;;;;4835464;29;20034;-75
2022/01/08 09:18:24;;;;;;;9.88;3.40;;;;;;;;;;4835168;29;20046;-75
2022/01/08 09:20:50;;;;;;;9.10;3.45;;;;;;;;;;4835018;29;20054;-76
2022/01/08 09:23:16;;;;;;;10.13;3.30;;;;;;;;;;4834258;29;20460;-76
2022/01/08 09:25:42;;;;;;;8.68;2.95;;;;;;;;;;4835620;29;20045;-76
2022/01/08 09:28:08;;;;;;;11.25;3.78;;;;;;;;;;4835162;29;20436;-76
2022/01/08 09:30:34;;;;;;;8.30;3.20;;;;;;;;;;4818822;29;20046;-75
2022/01/08 09:32:59;;;;;;;8.63;4.03;;;;;;;;;;4833909;29;20549;-76
2022/01/08 09:35:26;;;;;;;9.63;3.30;;;;;;;;;;4834976;29;20042;-76
2022/01/08 09:37:53;;;;;;;8.43;3.30;;;;;;;;;;4835618;29;20042;-76
2022/01/08 09:40:21;;;;;;;8.57;3.50;;;;;;;;;;4835220;29;20046;-76
2022/01/08 09:42:49;;;;;;;6.80;3.40;;;;;;;;;;4835760;29;20057;-77
2022/01/08 09:45:15;;;;;;;12.05;4.75;;;;;;;;;;4835410;29;20049;-78
2022/01/08 09:47:41;;;;;;;17.55;7.53;;;;;;;;;;4835405;29;20496;-78
2022/01/08 09:50:08;;;;;;;7.30;3.38;;;;;;;;;;4821033;29;20042;-79
2022/01/08 09:52:35;;;;;;;11.43;3.67;;;;;;;;;;4798952;29;20510;-77
2022/01/08 09:55:02;;;;;;;9.02;3.60;;;;;;;;;;4821185;29;20042;-76
2022/01/08 09:57:28;;;;;;;7.10;3.28;;;;;;;;;;4834907;29;20507;-75
2022/01/08 09:59:54;;;;;;;10.75;3.38;;;;;;;;;;4824655;29;20121;-75
2022/01/08 10:02:22;;;;;;;8.82;3.58;;;;;;;;;;4819346;29;20104;-75
2022/01/08 10:04:50;;;;;;;10.25;3.55;;;;;;;;;;4820617;29;20058;-74
2022/01/08 10:07:16;;;;;;;8.93;3.55;;;;;;;;;;4820310;29;20042;-75
2022/01/08 10:10:04;;;;;;;8.43;3.00;;;;;;;;;;4820404;29;20069;-76
2022/01/08 10:12:59;;;;;;;8.75;3.10;;;;;;;;;;4819724;29;20625;-76
2022/01/08 10:18:29;;;;;;;9.13;3.08;;;;;;;;;;4820037;29;20026;-76
2022/01/08 10:20:57;;;;;;;6.25;2.55;;;;;;;;;;4820140;29;20050;-75
2022/01/08 10:23:33;;;;;;;7.25;3.03;;;;;;;;;;4819555;29;20480;-75
2022/01/08 10:26:03;;;;;;;11.25;3.00;;;;;;;;;;4819323;29;20524;-75
2022/01/08 10:28:36;;;;;;;8.25;2.90;;;;;;;;;;4820018;29;20414;-75
2022/01/08 10:31:07;;;;;;;12.18;5.18;;;;;;;;;;4820032;29;20054;-74
2022/01/08 10:33:33;;;;;;;12.65;5.85;;;;;;;;;;4820137;29;20371;-75
2022/01/08 10:35:58;;;;;;;11.18;2.90;;;;;;;;;;4820130;29;20125;-74
2022/01/08 10:38:28;;;;;;;6.60;2.90;;;;;;;;;;4820224;29;20229;-75
2022/01/08 10:40:54;;;;;;;11.30;3.33;;;;;;;;;;4826623;29;20508;-74
2022/01/08 10:43:28;;;;;;;7.22;2.88;;;;;;;;;;4838222;29;20404;-74
2022/01/08 10:45:56;;;;;;;10.65;2.97;;;;;;;;;;4834309;29;20057;-75
2022/01/08 10:48:27;;;;;;;8.55;3.15;;;;;;;;;;4837584;29;20045;-75
2022/01/08 10:50:53;;;;;;;8.23;3.30;;;;;;;;;;4821507;29;20038;-75
2022/01/08 10:53:19;;;;;;;8.57;2.90;;;;;;;;;;4805039;29;20077;-75
2022/01/08 10:55:46;;;;;;;10.45;3.53;;;;;;;;;;4834648;29;20040;-75
2022/01/08 10:58:12;;;;;;;9.85;3.42;;;;;;;;;;4838090;29;20199;-75
2022/01/08 11:00:37;;;;;;;6.53;2.70;;;;;;;;;;4801595;29;20082;-74
2022/01/08 11:03:03;;;;;;;8.07;3.05;;;;;;;;;;4800656;29;20055;-75
2022/01/08 11:05:29;;;;;;;13.80;3.38;;;;;;;;;;4801375;29;20066;-74
2022/01/08 11:08:13;;;;;;;8.85;3.33;;;;;;;;;;4801121;29;20050;-75
2022/01/08 11:10:42;;;;;;;8.93;3.90;;;;;;;;;;4785301;29;20440;-74
2022/01/08 11:13:14;;;;;;;9.15;3.17;;;;;;;;;;4800809;29;20053;-75
2022/01/08 11:15:49;;;;;;;7.85;3.30;;;;;;;;;;4800875;29;20061;-75
2022/01/08 11:18:18;;;;;;;15.32;6.68;;;;;;;;;;4801447;29;20041;-75
2022/01/08 11:20:45;;;;;;;24.13;12.00;;;;;;;;;;4800992;29;20651;-75
2022/01/08 11:23:12;;;;;;;9.77;3.72;;;;;;;;;;4800392;29;20039;-75
2022/01/08 11:25:38;;;;;;;10.60;3.78;;;;;;;;;;4801433;29;20445;-74
2022/01/08 11:28:13;;;;;;;10.32;4.07;;;;;;;;;;4800795;29;20481;-75
2022/01/08 11:30:47;;;;;;;9.68;3.70;;;;;;;;;;4801171;29;20300;-74
2022/01/08 11:33:19;;;;;;;8.50;3.40;;;;;;;;;;4800975;29;20051;-74
2022/01/08 11:35:46;;;;;;;10.68;4.07;;;;;;;;;;4801391;29;20035;-74
2022/01/08 11:38:16;;;;;;;7.10;4.00;;;;;;;;;;4801821;29;20184;-74
2022/01/08 11:40:45;;;;;;;10.27;3.50;;;;;;;;;;4813461;29;20073;-74
2022/01/08 11:43:14;;;;;;;11.25;3.60;;;;;;;;;;4812385;29;20030;-74
2022/01/08 11:45:50;;;;;;;7.22;3.15;;;;;;;;;;4800315;29;20077;-74
2022/01/08 11:48:19;;;;;;;6.80;3.30;;;;;;;;;;4800556;29;20051;-74
2022/01/08 11:50:51;;;;;;;11.90;3.85;;;;;;;;;;4800436;29;20030;-75
2022/01/08 11:53:41;;;;;;;10.05;3.33;;;;;;;;;;4784367;29;20146;-76
2022/01/08 11:56:22;;;;;;;10.52;3.53;;;;;;;;;;4797517;29;20042;-74
2022/01/08 11:59:28;;;;;;;9.07;3.55;;;;;;;;;;4804827;29;20042;-73
2022/01/08 12:02:12;;;;;;;12.55;3.53;;;;;;;;;;4826312;29;20052;-74
2022/01/08 12:04:41;;;;;;;9.32;3.50;;;;;;;;;;4836849;29;20053;-75
2022/01/08 12:07:34;;;;;;;9.57;3.85;;;;;;;;;;4820201;29;20068;-74
2022/01/08 12:10:04;;;;;;;8.88;4.70;;;;;;;;;;4811942;29;20054;-75
2022/01/08 12:12:51;;;;;;;11.88;4.32;;;;;;;;;;4818660;29;20453;-74
2022/01/08 12:15:39;;;;;;;11.95;4.10;;;;;;;;;;4818779;29;20425;-74
2022/01/08 12:18:16;;;;;;;8.75;3.53;;;;;;;;;;4818202;29;20053;-76
2022/01/08 12:20:50;;;;;;;9.85;4.38;;;;;;;;;;4810743;29;20796;-74
2022/01/08 12:23:39;;;;;;;12.27;6.47;;;;;;;;;;4816632;29;20030;-75
2022/01/08 12:26:28;;;;;;;10.25;3.75;;;;;;;;;;4792721;29;20046;-77
2022/01/08 12:28:59;;;;;;;13.55;3.63;;;;;;;;;;4816617;29;20055;-79
2022/01/08 12:31:26;;;;;;;;;;;;;;;;;;4830776;29;20056;-78
2022/01/08 12:34:17;;;;;;;9.95;3.30;;;;;;;;;;4818447;29;19947;-79
2022/01/08 12:36:59;;;;;;;8.52;3.88;;;;;;;;;;4816400;29;20058;-80
2022/01/08 12:39:49;;;;;;;9.77;4.07;;;;;;;;;;4817643;29;20066;-79
2022/01/08 12:42:21;;;;;;;8.50;3.63;;;;;;;;;;4787910;29;20064;-78
2022/01/08 12:45:07;;;;;;;8.48;3.35;;;;;;;;;;4812828;29;20057;-77
2022/01/08 12:47:46;;;;;;;6.95;3.00;;;;;;;;;;4808620;29;20050;-78
2022/01/08 12:50:34;;;;;;;6.88;2.80;;;;;;;;;;4800005;29;20030;-78
2022/01/08 12:53:06;;;;;;;9.48;3.47;;;;;;;;;;4814277;29;20057;-77
2022/01/08 12:55:39;;;;;;;6.32;2.83;;;;;;;;;;4813572;29;20247;-78
2022/01/08 12:58:26;;;;;;;8.85;3.92;;;;;;;;;;4812863;29;20027;-78
2022/01/08 13:01:02;;;;;;;7.65;2.67;;;;;;;;;;4811831;29;20039;-75
2022/01/08 13:03:29;;;;;;;8.80;3.40;;;;;;;;;;4807334;29;20594;-75
2022/01/08 13:05:58;;;;;;;8.55;2.88;;;;;;;;;;4809202;29;20053;-75
2022/01/08 13:08:26;;;;;;;6.60;2.90;;;;;;;;;;4797948;29;20251;-76
2022/01/08 13:10:56;;;;;;;7.80;2.90;;;;;;;;;;4800309;29;20043;-76
2022/01/08 13:13:39;;;;;;;9.77;3.17;;;;;;;;;;4822251;29;20503;-74
2022/01/08 13:16:19;;;;;;;8.60;2.63;;;;;;;;;;4802767;29;20046;-73
2022/01/08 13:18:56;;;;;;;6.35;2.75;;;;;;;;;;4835131;29;20640;-74
2022/01/08 13:21:31;;;;;;;8.35;2.50;;;;;;;;;;4827301;29;20064;-75
2022/01/08 13:24:02;;;;;;;4.43;2.35;;;;;;;;;;4809936;29;20504;-74
2022/01/08 13:26:29;;;;;;;5.22;2.50;;;;;;;;;;4813962;29;20042;-74
2022/01/08 13:28:57;;;;;;;5.85;2.65;;;;;;;;;;4801699;29;20050;-74
2022/01/08 13:31:47;;;;;;;8.13;2.60;;;;;;;;;;4835823;29;20045;-77
2022/01/08 13:34:14;;;;;;;6.25;2.40;;;;;;;;;;4806804;29;20042;-76
2022/01/08 13:36:53;;;;;;;6.57;2.78;;;;;;;;;;4786302;29;20042;-77
2022/01/08 13:39:31;;;;;;;8.90;2.95;;;;;;;;;;4802959;29;20438;-77
2022/01/08 13:42:19;;;;;;;9.20;2.40;;;;;;;;;;4833543;29;20065;-77
2022/01/08 13:44:51;;;;;;;6.05;2.65;;;;;;;;;;4819158;29;20042;-76
2022/01/08 13:47:24;;;;;;;6.68;2.50;;;;;;;;;;4813616;29;20050;-76
2022/01/08 13:49:53;;;;;;;6.50;2.60;;;;;;;;;;4787161;29;20561;-76
2022/01/08 13:52:32;;;;;;;6.68;2.80;;;;;;;;;;4818044;29;20053;-76
2022/01/08 13:57:45;;;;;;;8.65;3.10;;;;;;;;;;4934099;23;20052;-76
2022/01/08 14:00:15;;;;;;;;;;;;;;;;;;4880474;29;20513;-76
2022/01/08 14:02:41;;;;;;;7.37;2.93;;;;;;;;;;4895078;29;19912;-76
2022/01/08 14:05:08;;;;;;;6.68;2.80;;;;;;;;;;4894422;29;20032;-76
2022/01/08 14:07:43;;;;;;;8.80;2.97;;;;;;;;;;4895034;29;20033;-76
2022/01/08 14:10:12;;;;;;;5.75;2.75;;;;;;;;;;4895289;29;20032;-76
2022/01/08 14:15:25;;;;;;;6.88;3.03;;;;;;;;;;4896592;23;20065;-77
2022/01/08 14:17:52;;;;;;;6.90;2.88;;;;;;;;;;4896578;29;20036;-78
2022/01/08 14:20:22;;;;;;;11.82;3.70;;;;;;;;;;4896425;29;20040;-76
2022/01/08 14:22:48;;;;;;;8.07;2.75;;;;;;;;;;4895966;29;20053;-77
2022/01/08 14:25:20;;;;;;;7.40;2.70;;;;;;;;;;4879134;29;20045;-76
2022/01/08 14:27:46;;;;;;;6.95;2.60;;;;;;;;;;4895811;29;20036;-75
2022/01/08 14:30:13;;;;;;;4.95;2.08;;;;;;;;;;4895854;29;20045;-76
2022/01/08 14:32:42;;;;;;;7.28;2.80;;;;;;;;;;4894721;29;20040;-76
2022/01/08 14:35:10;;;;;;;5.63;2.55;;;;;;;;;;4896156;29;20029;-77
2022/01/08 14:45:23;;;;;;;6.63;2.70;;;;;;;;;;5069321;23;20086;-74
2022/01/08 14:47:57;;;;;;;9.90;2.85;;;;;;;;;;4857569;29;20041;-74
2022/01/08 14:50:29;;;;;;;5.57;2.35;;;;;;;;;;4857398;29;20045;-74
2022/01/08 14:52:57;;;;;;;6.55;2.45;;;;;;;;;;4874694;29;20048;-74
2022/01/08 14:55:37;;;;;;;4.15;2.08;;;;;;;;;;4862179;29;20052;-77
2022/01/08 14:58:05;;;;;;;7.15;2.17;;;;;;;;;;4877456;29;20025;-76
2022/01/08 15:00:32;;;;;;;4.75;2.20;;;;;;;;;;4877144;29;20511;-76
2022/01/08 15:03:00;;;;;;;7.15;2.67;;;;;;;;;;4871408;29;20060;-75
2022/01/08 15:05:27;;;;;;;5.80;2.40;;;;;;;;;;4876955;29;20033;-75
2022/01/08 15:07:53;;;;;;;5.32;2.05;;;;;;;;;;4860124;29;20041;-74
2022/01/08 15:10:19;;;;;;;7.50;2.17;;;;;;;;;;4876717;29;20043;-75
2022/01/08 15:12:45;;;;;;;6.80;2.28;;;;;;;;;;4858896;29;20044;-75
2022/01/08 15:15:13;;;;;;;8.73;2.38;;;;;;;;;;4874911;29;20407;-75
2022/01/08 15:17:39;;;;;;;6.30;2.30;;;;;;;;;;4869920;29;20048;-73
2022/01/08 15:20:08;;;;;;;5.43;2.03;;;;;;;;;;4865404;29;20029;-75
2022/01/08 15:22:34;;;;;;;5.93;2.22;;;;;;;;;;4877195;29;20524;-73
2022/01/08 15:25:00;;;;;;;7.03;2.33;;;;;;;;;;4890113;29;20490;-75
2022/01/08 15:27:26;;;;;;;7.65;2.13;;;;;;;;;;4857110;29;20037;-75
2022/01/08 15:29:52;;;;;;;8.27;2.30;;;;;;;;;;4870334;29;20040;-73
2022/01/08 15:32:21;;;;;;;8.27;2.40;;;;;;;;;;4865386;29;20428;-73